createdAt,value
2019-03-22T00:45:08.206Z,39.20
2019-03-22T01:41:29.784Z,47.80
2019-03-22T01:52:00.063Z,44.40
2019-03-22T01:56:00.804Z,49.00
2019-03-22T02:09:00.283Z,43.80
2019-03-22T02:16:35.640Z,50.00
2019-03-22T02:19:09.911Z,47.00
2019-03-22T02:23:15.746Z,35.00
2019-03-22T02:34:45.787Z,46.80
2019-03-22T02:38:28.693Z,42.20
2019-03-22T03:06:46.339Z,60.60
2019-03-22T03:09:44.985Z,54.40
2019-03-22T03:23:58.810Z,48.60
2019-03-22T03:57:24.543Z,53.60
2019-03-22T04:17:10.409Z,37.20
2019-03-22T04:19:41.020Z,39.00
2019-03-22T04:22:11.167Z,36.20
2019-03-22T04:25:06.118Z,33.00
2019-03-22T04:27:36.504Z,34.00
2019-03-22T04:30:07.539Z,36.20
2019-03-22T04:32:38.027Z,35.60
2019-03-22T04:35:09.104Z,34.80
2019-03-22T04:37:39.661Z,32.60
2019-03-22T04:40:13.114Z,30.80
2019-03-22T04:42:44.375Z,31.00
2019-03-22T04:45:15.201Z,32.20
2019-03-22T04:47:46.151Z,31.60
2019-03-22T04:50:18.019Z,33.20
2019-03-22T04:52:48.406Z,36.00
2019-03-22T04:55:19.507Z,35.40
2019-03-22T04:57:51.328Z,32.20
2019-03-22T05:00:22.249Z,33.40
2019-03-22T05:02:54.412Z,32.60
2019-03-22T05:05:25.188Z,30.00
2019-03-22T05:07:55.622Z,31.20
2019-03-22T05:10:26.875Z,30.00
2019-03-22T05:13:00.348Z,31.00
2019-03-22T05:15:32.400Z,29.80
2019-03-22T05:18:03.229Z,29.80
2019-03-22T05:20:35.508Z,31.80
2019-03-22T05:23:06.131Z,31.20
2019-03-22T05:25:36.710Z,31.40
2019-03-22T05:28:09.952Z,28.60
2019-03-22T05:30:54.201Z,30.20
2019-03-22T05:33:24.841Z,26.60
2019-03-22T05:35:55.257Z,29.00
2019-03-22T05:38:25.581Z,28.00
2019-03-22T05:40:55.772Z,28.20
2019-03-22T05:43:26.644Z,29.80
2019-03-22T05:45:57.016Z,28.80
2019-03-22T05:48:27.225Z,29.20
2019-03-22T05:50:57.550Z,27.80
2019-03-22T05:53:27.827Z,25.60
2019-03-22T05:55:58.285Z,25.40
2019-03-22T05:58:29.118Z,27.00
2019-03-22T06:00:59.287Z,29.00
2019-03-22T06:03:29.852Z,27.20
2019-03-22T06:05:59.958Z,24.00
2019-03-22T06:08:30.480Z,24.00
2019-03-22T06:11:02.139Z,25.00
2019-03-22T06:13:32.505Z,25.00
2019-03-22T06:16:02.849Z,23.20
2019-03-22T06:18:33.061Z,25.00
2019-03-22T06:21:03.387Z,21.20
2019-03-22T06:23:33.928Z,22.60
2019-03-22T06:26:04.734Z,20.60
2019-03-22T06:28:34.937Z,21.40
2019-03-22T06:31:05.432Z,17.20
2019-03-22T06:33:35.620Z,18.40
2019-03-22T06:36:05.974Z,12.40
2019-03-22T06:38:36.769Z,14.40
2019-03-22T06:41:07.517Z,17.40
2019-03-22T06:43:37.731Z,14.20
2019-03-22T06:46:08.070Z,17.40
2019-03-22T06:48:38.721Z,15.00
2019-03-22T06:51:09.209Z,16.80
2019-03-22T06:53:39.302Z,16.00
2019-03-22T06:56:09.544Z,16.20
2019-03-22T06:58:40.173Z,17.20
2019-03-22T07:01:10.506Z,15.20
2019-03-22T07:03:41.292Z,11.40
2019-03-22T07:06:14.807Z,11.80
2019-03-22T07:08:46.753Z,17.60
2019-03-22T07:11:17.112Z,14.60
2019-03-22T07:13:47.793Z,12.00
2019-03-22T07:16:18.422Z,12.60
2019-03-22T07:18:49.528Z,15.40
2019-03-22T07:21:20.350Z,18.20
2019-03-22T07:23:50.835Z,18.80
2019-03-22T07:26:22.250Z,20.80
2019-03-22T07:28:53.234Z,18.40
2019-03-22T07:31:23.846Z,17.20
2019-03-22T07:33:54.204Z,17.20
2019-03-22T07:36:24.587Z,20.60
2019-03-22T07:38:55.343Z,14.80
2019-03-22T07:41:25.971Z,15.20
2019-03-22T07:43:56.631Z,15.60
2019-03-22T07:46:27.296Z,17.80
2019-03-22T07:48:57.600Z,20.20
2019-03-22T07:51:27.967Z,18.60
2019-03-22T07:53:58.547Z,17.40
2019-03-22T07:56:28.884Z,16.60
2019-03-22T07:58:59.215Z,17.40
2019-03-22T08:01:29.497Z,15.20
2019-03-22T08:04:01.242Z,18.00
2019-03-22T08:06:32.211Z,17.60
2019-03-22T08:09:04.670Z,16.40
2019-03-22T08:11:35.048Z,14.60
2019-03-22T08:14:05.570Z,15.20
2019-03-22T08:16:36.494Z,15.00
2019-03-22T08:19:06.910Z,16.40
2019-03-22T08:21:37.246Z,14.20
2019-03-22T08:24:07.805Z,15.00
2019-03-22T08:26:38.082Z,13.80
2019-03-22T08:29:08.469Z,14.40
2019-03-22T08:31:38.763Z,11.40
2019-03-22T08:34:09.127Z,11.60
2019-03-22T08:36:39.508Z,11.40
2019-03-22T08:39:10.361Z,64.25
2019-03-22T08:41:40.558Z,10.60
2019-03-22T08:44:11.061Z,13.00
2019-03-22T08:46:41.563Z,11.40
2019-03-22T08:49:12.207Z,7.40
2019-03-22T08:51:43.955Z,9.00
2019-03-22T08:54:14.651Z,10.20
2019-03-22T08:56:47.889Z,11.00
2019-03-22T08:59:18.322Z,10.60
2019-03-22T09:01:48.616Z,11.40
2019-03-22T09:04:19.792Z,10.80
2019-03-22T09:06:50.066Z,10.60
2019-03-22T09:09:20.620Z,9.80
2019-03-22T09:11:50.740Z,8.80
2019-03-22T09:14:21.266Z,8.80
2019-03-22T09:16:51.980Z,7.80
2019-03-22T09:19:22.244Z,6.20
2019-03-22T09:21:52.532Z,6.40
2019-03-22T09:24:22.929Z,2.20
2019-03-22T09:26:53.031Z,6.60
2019-03-22T09:29:23.618Z,7.00
2019-03-22T09:31:54.186Z,8.40
2019-03-22T09:34:33.547Z,6.80
2019-03-22T09:36:56.566Z,7.80
2019-03-22T09:39:26.767Z,7.00
2019-03-22T09:41:56.842Z,7.40
2019-03-22T09:44:28.350Z,6.00
2019-03-22T09:46:59.044Z,8.00
2019-03-22T09:49:29.662Z,6.60
2019-03-22T09:52:00.211Z,6.20
2019-03-22T09:54:30.746Z,7.20
2019-03-22T09:57:02.480Z,6.60
2019-03-22T09:59:33.813Z,6.00
2019-03-22T10:02:04.568Z,6.80
2019-03-22T10:04:34.681Z,7.40
2019-03-22T10:07:05.364Z,6.20
2019-03-22T10:09:35.747Z,7.40
2019-03-22T10:12:06.045Z,6.80
2019-03-22T10:14:36.676Z,5.60
2019-03-22T10:17:06.931Z,7.00
2019-03-22T10:19:37.799Z,5.00
2019-03-22T10:22:08.077Z,6.80
2019-03-22T10:24:38.825Z,6.60
2019-03-22T10:27:09.341Z,7.80
2019-03-22T10:29:40.214Z,7.40
2019-03-22T10:32:12.588Z,6.00
2019-03-22T10:34:42.900Z,8.80
2019-03-22T10:37:13.617Z,6.60
2019-03-22T10:39:44.033Z,8.80
2019-03-22T10:42:14.365Z,8.20
2019-03-22T10:44:44.890Z,6.20
2019-03-22T10:47:18.075Z,5.80
2019-03-22T10:49:48.683Z,9.80
2019-03-22T10:52:18.944Z,6.80
2019-03-22T10:54:49.518Z,10.00
2019-03-22T10:57:19.866Z,9.40
2019-03-22T10:59:50.299Z,7.40
2019-03-22T11:02:20.970Z,7.80
2019-03-22T11:04:51.831Z,6.00
2019-03-22T11:07:22.256Z,10.00
2019-03-22T11:09:52.866Z,8.00
2019-03-22T11:12:23.151Z,9.00
2019-03-22T11:14:54.855Z,8.60
2019-03-22T11:17:25.046Z,9.00
2019-03-22T11:19:57.467Z,7.20
2019-03-22T11:22:27.545Z,8.40
2019-03-22T11:24:57.932Z,8.80
2019-03-22T11:27:28.363Z,7.60
2019-03-22T11:29:58.797Z,8.40
2019-03-22T11:32:29.330Z,10.00
2019-03-22T11:35:00.444Z,8.40
2019-03-22T11:37:31.033Z,8.00
2019-03-22T11:40:01.867Z,8.80
2019-03-22T11:42:32.378Z,7.60
2019-03-22T11:45:02.924Z,9.00
2019-03-22T11:47:33.336Z,8.20
2019-03-22T11:50:04.791Z,10.20
2019-03-22T11:52:35.864Z,9.60
2019-03-22T11:55:08.016Z,9.00
2019-03-22T11:57:39.326Z,9.20
2019-03-22T12:00:12.368Z,9.00
2019-03-22T12:02:42.969Z,9.60
2019-03-22T12:05:13.735Z,8.00
2019-03-22T12:07:44.323Z,9.00
2019-03-22T12:10:17.014Z,8.60
2019-03-22T12:12:47.703Z,10.00
2019-03-22T12:15:18.505Z,10.00
2019-03-22T12:17:49.200Z,11.00
2019-03-22T12:20:20.293Z,9.00
2019-03-22T12:22:50.724Z,8.20
2019-03-22T12:25:21.345Z,11.80
2019-03-22T12:27:52.934Z,10.40
2019-03-22T12:30:23.854Z,10.20
2019-03-22T12:32:54.734Z,10.00
2019-03-22T12:35:25.180Z,9.20
2019-03-22T12:37:57.627Z,13.00
2019-03-22T12:40:27.500Z,12.00
2019-03-22T12:42:58.350Z,12.80
2019-03-22T12:45:29.135Z,17.20
2019-03-22T12:47:59.694Z,17.40
2019-03-22T12:50:30.242Z,16.00
2019-03-22T12:53:03.938Z,16.20
2019-03-22T12:55:34.662Z,14.00
2019-03-22T12:58:05.876Z,16.00
2019-03-22T13:00:36.692Z,19.40
2019-03-22T13:03:07.297Z,21.00
2019-03-22T13:05:37.684Z,21.00
2019-03-22T13:08:08.279Z,22.00
2019-03-22T13:10:40.540Z,21.00
2019-03-22T13:13:11.785Z,15.80
2019-03-22T13:15:42.507Z,19.60
2019-03-22T13:18:12.933Z,16.00
2019-03-22T13:20:43.313Z,17.20
2019-03-22T13:23:14.491Z,19.00
2019-03-22T13:25:45.823Z,12.60
2019-03-22T13:28:16.399Z,20.60
2019-03-22T13:30:47.692Z,19.60
2019-03-22T13:33:18.097Z,20.20
2019-03-22T13:35:48.818Z,23.00
2019-03-22T13:38:19.764Z,22.40
2019-03-22T13:40:50.264Z,20.60
2019-03-22T13:43:20.886Z,20.40
2019-03-22T13:45:52.131Z,19.20
2019-03-22T13:48:23.769Z,21.40
2019-03-22T13:50:54.474Z,22.80
2019-03-22T13:53:25.269Z,18.00
2019-03-22T13:55:56.531Z,20.20
2019-03-22T13:58:27.460Z,21.80
2019-03-22T14:00:59.313Z,23.40
2019-03-22T14:03:29.787Z,23.00
2019-03-22T14:06:00.918Z,21.00
2019-03-22T14:08:31.809Z,22.60
2019-03-22T14:11:02.858Z,21.00
2019-03-22T14:13:33.589Z,24.00
2019-03-22T14:16:04.562Z,22.60
2019-03-22T14:18:34.994Z,24.40
2019-03-22T14:21:06.519Z,23.00
2019-03-22T14:23:37.369Z,24.80
2019-03-22T14:26:08.168Z,28.00
2019-03-22T14:28:38.464Z,28.00
2019-03-22T14:31:09.005Z,28.60
2019-03-22T14:33:39.357Z,30.00
2019-03-22T14:36:09.775Z,26.20
2019-03-22T14:38:40.505Z,27.80
2019-03-22T14:41:10.939Z,28.60
2019-03-22T14:43:41.515Z,29.00
2019-03-22T14:46:11.816Z,30.00
2019-03-22T14:48:42.152Z,28.60
2019-03-22T14:51:13.164Z,30.60
2019-03-22T14:53:44.592Z,29.80
2019-03-22T14:56:15.114Z,29.00
2019-03-22T14:58:45.597Z,30.00
2019-03-22T15:01:16.381Z,29.80
2019-03-22T15:03:47.234Z,30.60
2019-03-22T15:06:17.676Z,29.80
2019-03-22T15:08:48.195Z,28.60
2019-03-22T15:11:18.555Z,30.00
2019-03-22T15:14:00.350Z,31.20
2019-03-22T15:16:49.971Z,29.20
2019-03-22T15:19:38.883Z,26.60
2019-03-22T15:22:32.193Z,29.00
2019-03-22T15:25:20.549Z,28.00
2019-03-22T15:28:16.668Z,28.00
2019-03-22T15:31:24.263Z,29.20
2019-03-22T15:34:31.652Z,29.20
2019-03-22T15:37:24.178Z,28.60
2019-03-22T15:40:04.104Z,27.40
2019-03-22T15:42:34.728Z,26.40
2019-03-22T15:45:06.949Z,27.20
2019-03-22T15:47:38.104Z,26.60
2019-03-22T15:50:08.925Z,28.00
2019-03-22T15:52:39.412Z,26.60
2019-03-22T15:55:10.236Z,28.80
2019-03-22T15:57:40.758Z,28.80
2019-03-22T16:00:12.118Z,29.20
2019-03-22T16:02:42.840Z,27.80
2019-03-22T16:05:14.099Z,30.00
2019-03-22T16:07:45.358Z,25.60
2019-03-22T16:10:15.866Z,28.80
2019-03-22T16:12:46.337Z,30.20
2019-03-22T16:15:17.170Z,28.60
2019-03-22T16:20:59.874Z,30.20
2019-03-22T16:23:25.382Z,30.20
2019-03-22T16:25:55.961Z,30.20
2019-03-22T16:28:26.504Z,29.40
2019-03-22T16:30:57.215Z,30.20
2019-03-22T16:33:27.566Z,30.20
2019-03-22T16:35:57.932Z,30.00
2019-03-22T16:38:28.501Z,30.20
2019-03-22T16:40:59.147Z,32.40
2019-03-22T16:43:29.594Z,30.20
2019-03-22T16:46:01.522Z,32.20
2019-03-22T16:48:32.634Z,34.00
2019-03-22T16:51:03.212Z,31.00
2019-03-22T16:53:33.709Z,33.20
2019-03-22T16:56:04.024Z,32.40
2019-03-22T16:58:34.666Z,27.80
2019-03-22T17:01:05.535Z,33.20
2019-03-22T17:03:36.637Z,33.20
2019-03-22T17:06:07.087Z,31.60
2019-03-22T17:08:38.076Z,33.00
2019-03-22T17:11:09.427Z,32.80
2019-03-22T17:13:40.126Z,34.20
2019-03-22T17:16:11.370Z,34.20
2019-03-22T17:18:41.828Z,33.40
2019-03-22T17:21:12.251Z,35.20
2019-03-22T17:23:42.658Z,30.00
2019-03-22T17:26:13.136Z,33.00
2019-03-22T17:28:43.753Z,37.60
2019-03-22T17:31:14.430Z,34.60
2019-03-22T17:33:45.347Z,34.20
2019-03-22T17:36:15.943Z,37.00
2019-03-22T17:38:46.536Z,36.00
2019-03-22T17:41:16.943Z,34.00
2019-03-22T17:43:47.215Z,36.20
2019-03-22T17:46:17.585Z,36.40
2019-03-22T17:48:47.780Z,36.40
2019-03-22T17:51:18.228Z,37.00
2019-03-22T17:53:48.667Z,37.40
2019-03-22T17:56:19.087Z,37.40
2019-03-22T17:58:49.450Z,37.00
2019-03-22T18:01:19.844Z,35.00
2019-03-22T18:03:50.137Z,36.80
2019-03-22T18:06:20.872Z,35.00
2019-03-22T18:08:51.231Z,35.40
2019-03-22T18:11:21.744Z,34.40
2019-03-22T18:13:52.572Z,33.80
2019-03-22T18:16:23.092Z,35.60
2019-03-22T18:18:53.305Z,34.00
2019-03-22T18:21:23.760Z,32.40
2019-03-22T18:23:54.207Z,34.20
2019-03-22T18:26:24.739Z,34.00
2019-03-22T18:28:55.177Z,33.60
2019-03-22T18:31:25.902Z,31.20
2019-03-22T18:33:56.698Z,32.20
2019-03-22T18:36:26.972Z,32.00
2019-03-22T18:38:58.490Z,33.00
2019-03-22T18:41:28.955Z,32.00
2019-03-22T18:43:59.483Z,34.20
2019-03-22T18:46:30.161Z,25.80
2019-03-22T18:49:00.745Z,32.40
2019-03-22T18:51:31.517Z,33.80
2019-03-22T18:54:01.976Z,32.00
2019-03-22T18:56:32.178Z,33.00
2019-03-22T18:59:02.910Z,32.00
2019-03-22T19:01:33.588Z,32.20
2019-03-22T19:04:04.239Z,33.00
2019-03-22T19:06:34.670Z,33.80
2019-03-22T19:09:06.158Z,32.80
2019-03-22T19:11:36.340Z,31.60
2019-03-22T19:14:06.917Z,33.00
2019-03-22T19:16:37.302Z,32.40
2019-03-22T19:19:07.977Z,32.20
2019-03-22T19:21:38.295Z,34.00
2019-03-22T19:24:09.476Z,33.20
2019-03-22T19:26:39.687Z,35.20
2019-03-22T19:29:10.211Z,32.60
2019-03-22T19:31:40.601Z,34.20
2019-03-22T19:34:10.933Z,32.40
2019-03-22T19:36:41.658Z,34.20
2019-03-22T19:39:12.102Z,33.20
2019-03-22T19:41:43.142Z,32.20
2019-03-22T19:44:14.070Z,32.20
2019-03-22T19:46:45.515Z,32.60
2019-03-22T19:49:15.985Z,32.40
2019-03-22T19:51:46.723Z,32.20
2019-03-22T19:54:17.233Z,32.40
2019-03-22T19:56:47.827Z,31.00
2019-03-22T19:59:18.138Z,33.20
2019-03-22T20:01:48.518Z,34.20
2019-03-22T20:04:19.103Z,33.00
2019-03-22T20:06:49.394Z,31.80
2019-03-22T20:09:19.738Z,29.80
2019-03-22T20:11:50.148Z,32.00
2019-03-22T20:14:20.500Z,32.20
2019-03-22T20:16:50.783Z,33.20
2019-03-22T20:19:21.174Z,34.40
2019-03-22T20:21:51.373Z,33.60
2019-03-22T20:24:22.230Z,31.20
2019-03-22T20:26:52.525Z,32.20
2019-03-22T20:29:22.988Z,32.20
2019-03-22T20:31:53.362Z,33.60
2019-03-22T20:34:23.738Z,32.20
2019-03-22T20:36:53.944Z,35.00
2019-03-22T20:39:24.228Z,32.20
2019-03-22T20:41:54.582Z,34.20
2019-03-22T20:44:33.628Z,34.60
2019-03-22T20:46:57.067Z,34.20
2019-03-22T20:49:27.415Z,35.00
2019-03-22T20:51:57.922Z,36.00
2019-03-22T20:54:28.457Z,35.80
2019-03-22T20:56:59.068Z,35.60
2019-03-22T20:59:29.911Z,36.00
2019-03-22T21:02:00.257Z,36.80
2019-03-22T21:04:30.695Z,36.40
2019-03-22T21:07:01.669Z,36.40
2019-03-22T21:09:32.373Z,37.00
2019-03-22T21:12:03.872Z,37.40
2019-03-22T21:14:34.435Z,37.20
2019-03-22T21:17:05.030Z,38.60
2019-03-22T21:19:35.849Z,37.40
2019-03-22T21:22:06.404Z,39.00
2019-03-22T21:24:36.662Z,36.20
2019-03-22T21:27:15.129Z,38.80
2019-03-22T21:29:44.149Z,39.00
2019-03-22T21:32:11.395Z,38.20
2019-03-22T21:34:44.004Z,34.60
2019-03-22T21:37:13.952Z,38.60
2019-03-22T21:39:44.331Z,37.00
2019-03-22T21:42:14.900Z,35.20
2019-03-22T21:44:45.215Z,36.20
2019-03-22T21:47:15.830Z,36.00
2019-03-22T21:49:46.427Z,37.00
2019-03-22T21:52:17.083Z,37.80
2019-03-22T21:54:47.708Z,39.20
2019-03-22T21:57:19.733Z,38.60
2019-03-22T21:59:51.275Z,36.00
2019-03-22T22:02:21.738Z,38.40
2019-03-22T22:04:52.584Z,37.00
2019-03-22T22:07:22.742Z,34.80
2019-03-22T22:09:53.174Z,34.80
2019-03-22T22:12:23.396Z,34.60
2019-03-22T22:14:53.723Z,37.00
2019-03-22T22:17:24.118Z,35.40
2019-03-22T22:19:55.037Z,35.60
2019-03-22T22:22:25.274Z,36.20
2019-03-22T22:24:55.661Z,36.80
2019-03-22T22:27:25.959Z,37.20
2019-03-22T22:29:56.427Z,38.60
2019-03-22T22:32:26.672Z,34.20
2019-03-22T22:34:57.123Z,36.40
2019-03-22T22:37:27.759Z,38.40
2019-03-22T22:39:58.333Z,38.60
2019-03-22T22:42:28.653Z,39.00
2019-03-22T22:44:58.951Z,38.00
2019-03-22T22:47:29.354Z,38.20
2019-03-22T22:50:00.336Z,37.00
2019-03-22T22:52:31.096Z,35.60
2019-03-22T22:55:01.352Z,37.40
2019-03-22T22:57:32.109Z,38.80
2019-03-22T23:00:02.707Z,36.80
2019-03-22T23:02:34.759Z,37.00
2019-03-22T23:05:05.472Z,37.20
2019-03-22T23:07:35.875Z,36.00
2019-03-22T23:10:07.482Z,34.40
2019-03-22T23:12:38.124Z,36.20
2019-03-22T23:15:08.831Z,37.00
2019-03-22T23:17:39.477Z,38.00
2019-03-22T23:20:11.334Z,37.00
2019-03-22T23:22:42.615Z,37.00
2019-03-22T23:25:13.624Z,35.00
2019-03-22T23:27:44.188Z,34.40
2019-03-22T23:30:14.900Z,37.40
2019-03-22T23:32:45.379Z,36.00
2019-03-22T23:35:15.946Z,35.00
2019-03-22T23:37:46.406Z,36.80
2019-03-22T23:40:17.095Z,34.80
2019-03-22T23:42:47.561Z,37.00
2019-03-22T23:45:18.255Z,34.00
2019-03-22T23:47:48.639Z,34.60
2019-03-22T23:50:19.366Z,32.80
2019-03-22T23:52:49.780Z,36.60
2019-03-22T23:55:20.035Z,36.20
2019-03-22T23:57:50.321Z,35.60
